createdAt,value
2023-03-19T00:01:08.906Z,30.15
2023-03-19T00:03:36.664Z,28.30
2023-03-19T00:06:04.532Z,32.22
2023-03-19T00:08:31.891Z,38.20
2023-03-19T00:10:59.405Z,35.75
2023-03-19T00:13:29.802Z,30.98
2023-03-19T00:15:59.058Z,35.65
2023-03-19T00:18:26.464Z,28.63
2023-03-19T00:20:56.110Z,26.52
2023-03-19T00:23:23.646Z,27.83
2023-03-19T00:25:51.228Z,26.17
2023-03-19T00:28:18.660Z,23.23
2023-03-19T00:30:45.978Z,23.75
2023-03-19T00:33:13.460Z,22.73
2023-03-19T00:35:41.551Z,20.42
2023-03-19T00:38:09.992Z,19.08
2023-03-19T00:40:37.491Z,24.65
2023-03-19T00:43:05.002Z,20.05
2023-03-19T00:45:32.802Z,19.83
2023-03-19T00:48:00.499Z,23.27
2023-03-19T00:50:28.114Z,20.77
2023-03-19T00:52:55.832Z,22.67
2023-03-19T00:55:32.193Z,21.60
2023-03-19T00:57:59.821Z,17.17
2023-03-19T01:00:27.780Z,14.90
2023-03-19T01:02:55.326Z,18.45
2023-03-19T01:05:22.729Z,30.00
2023-03-19T01:07:51.009Z,36.53
2023-03-19T01:10:22.333Z,26.85
2023-03-19T01:12:51.002Z,25.45
2023-03-19T01:15:19.672Z,20.02
2023-03-19T01:17:47.852Z,21.83
2023-03-19T01:20:19.210Z,21.65
2023-03-19T01:22:46.946Z,21.83
2023-03-19T01:25:14.780Z,17.58
2023-03-19T01:27:52.610Z,17.40
2023-03-19T01:30:20.968Z,22.58
2023-03-19T01:33:15.355Z,19.65
2023-03-19T01:36:04.992Z,22.98
2023-03-19T01:38:56.333Z,18.85
2023-03-19T01:41:27.630Z,16.17
2023-03-19T01:44:02.010Z,24.42
2023-03-19T01:46:39.999Z,17.55
2023-03-19T01:49:27.977Z,22.45
2023-03-19T01:52:13.838Z,25.55
2023-03-19T01:55:20.228Z,25.48
2023-03-19T01:58:09.089Z,23.60
2023-03-19T02:00:58.495Z,24.77
2023-03-19T02:03:27.397Z,23.67
2023-03-19T02:06:06.486Z,24.08
2023-03-19T02:08:36.026Z,26.92
2023-03-19T02:11:03.650Z,23.75
2023-03-19T02:13:31.299Z,23.15
2023-03-19T02:16:00.390Z,27.05
2023-03-19T02:18:28.695Z,18.25
2023-03-19T02:21:22.317Z,19.92
2023-03-19T02:24:06.566Z,17.98
2023-03-19T02:26:51.773Z,20.27
2023-03-19T02:29:19.229Z,14.73
2023-03-19T02:31:47.639Z,13.63
2023-03-19T02:34:21.396Z,18.65
2023-03-19T02:36:57.807Z,17.70
2023-03-19T02:39:38.806Z,16.63
2023-03-19T02:42:11.619Z,17.45
2023-03-19T02:44:39.289Z,16.08
2023-03-19T02:47:06.978Z,18.73
2023-03-19T02:49:34.495Z,21.85
2023-03-19T02:52:02.134Z,19.52
2023-03-19T02:54:29.647Z,16.75
2023-03-19T02:56:57.278Z,17.15
2023-03-19T02:59:24.772Z,18.80
2023-03-19T03:01:55.553Z,17.45
2023-03-19T03:04:23.750Z,15.48
2023-03-19T03:06:51.275Z,16.75
2023-03-19T03:09:19.882Z,16.05
2023-03-19T03:11:47.302Z,19.08
2023-03-19T03:14:17.662Z,20.42
2023-03-19T03:16:45.609Z,19.55
2023-03-19T03:19:13.789Z,16.45
2023-03-19T03:21:42.700Z,23.13
2023-03-19T03:24:11.216Z,18.55
2023-03-19T03:26:39.138Z,21.88
2023-03-19T03:29:07.353Z,19.73
2023-03-19T03:31:37.531Z,20.35
2023-03-19T03:34:05.237Z,20.42
2023-03-19T03:36:32.785Z,21.52
2023-03-19T03:39:04.368Z,22.52
2023-03-19T03:41:32.298Z,21.40
2023-03-19T03:44:01.549Z,18.73
2023-03-19T03:46:40.046Z,17.67
2023-03-19T03:49:07.611Z,20.88
2023-03-19T03:51:34.965Z,18.33
2023-03-19T03:54:02.734Z,19.45
2023-03-19T03:56:31.582Z,16.48
2023-03-19T03:58:59.188Z,19.33
2023-03-19T04:01:29.179Z,20.20
2023-03-19T04:06:30.255Z,18.33
2023-03-19T04:09:12.237Z,18.48
2023-03-19T04:11:41.317Z,19.33
2023-03-19T04:14:08.972Z,20.80
2023-03-19T04:16:39.012Z,19.02
2023-03-19T04:19:08.024Z,17.15
2023-03-19T04:21:35.561Z,15.65
2023-03-19T04:24:12.187Z,15.85
2023-03-19T04:26:40.025Z,19.85
2023-03-19T04:29:10.779Z,14.20
2023-03-19T04:31:38.425Z,20.40
2023-03-19T04:34:06.095Z,20.52
2023-03-19T04:36:33.850Z,16.98
2023-03-19T04:39:01.356Z,15.40
2023-03-19T04:41:29.079Z,13.65
2023-03-19T04:44:24.322Z,15.23
2023-03-19T04:46:51.785Z,12.10
2023-03-19T04:49:21.470Z,12.82
2023-03-19T04:51:50.231Z,12.88
2023-03-19T04:54:18.029Z,12.43
2023-03-19T04:56:48.442Z,17.35
2023-03-19T04:59:20.994Z,17.17
2023-03-19T05:01:50.171Z,16.35
2023-03-19T05:04:21.573Z,21.90
2023-03-19T05:06:50.507Z,21.73
2023-03-19T05:09:18.364Z,22.77
2023-03-19T05:11:45.856Z,21.80
2023-03-19T05:14:19.994Z,22.17
2023-03-19T05:17:01.910Z,25.65
2023-03-19T05:19:39.738Z,30.17
2023-03-19T05:22:11.903Z,22.50
2023-03-19T05:24:39.718Z,21.05
2023-03-19T05:27:08.757Z,20.73
2023-03-19T05:30:16.153Z,14.40
2023-03-19T05:33:05.409Z,13.43
2023-03-19T05:35:38.120Z,14.75
2023-03-19T05:38:12.592Z,15.23
2023-03-19T05:40:43.272Z,13.57
2023-03-19T05:43:21.500Z,15.70
2023-03-19T05:45:53.273Z,17.02
2023-03-19T05:48:26.358Z,18.30
2023-03-19T05:50:54.281Z,16.23
2023-03-19T05:53:23.403Z,14.13
2023-03-19T05:56:26.516Z,14.25
2023-03-19T05:59:12.656Z,15.75
2023-03-19T06:01:44.340Z,12.90
2023-03-19T06:04:15.073Z,14.73
2023-03-19T06:06:45.716Z,14.43
2023-03-19T06:09:13.304Z,10.25
2023-03-19T06:11:46.144Z,13.65
2023-03-19T06:14:35.047Z,7.75
2023-03-19T06:17:32.397Z,9.98
2023-03-19T06:22:32.282Z,10.93
2023-03-19T06:25:00.258Z,10.05
2023-03-19T06:27:28.361Z,7.97
2023-03-19T06:30:09.306Z,9.30
2023-03-19T06:32:37.583Z,8.35
2023-03-19T06:35:11.430Z,8.20
2023-03-19T06:37:39.972Z,5.32
2023-03-19T06:40:10.739Z,9.23
2023-03-19T06:42:38.587Z,4.13
2023-03-19T06:45:07.833Z,8.32
2023-03-19T06:47:35.363Z,10.45
2023-03-19T06:50:03.047Z,7.32
2023-03-19T06:52:31.529Z,5.63
2023-03-19T06:55:01.232Z,6.75
2023-03-19T06:57:28.524Z,8.50
2023-03-19T06:59:56.008Z,4.95
2023-03-19T07:02:23.519Z,5.60
2023-03-19T07:04:51.062Z,10.60
2023-03-19T07:07:19.251Z,5.10
2023-03-19T07:09:46.684Z,6.88
2023-03-19T07:12:16.625Z,7.07
2023-03-19T07:14:44.414Z,5.97
2023-03-19T07:17:11.797Z,7.90
2023-03-19T07:19:44.125Z,9.00
2023-03-19T07:22:11.973Z,8.25
2023-03-19T07:24:39.353Z,5.63
2023-03-19T07:27:06.784Z,4.05
2023-03-19T07:29:34.147Z,5.05
2023-03-19T07:32:01.663Z,7.25
2023-03-19T07:34:29.166Z,6.82
2023-03-19T07:36:56.905Z,3.97
2023-03-19T07:39:24.127Z,1.95
2023-03-19T07:41:56.437Z,5.40
2023-03-19T07:44:24.401Z,4.40
2023-03-19T07:46:51.877Z,6.75
2023-03-19T07:49:19.263Z,5.00
2023-03-19T07:51:46.652Z,3.22
2023-03-19T07:54:14.210Z,4.65
2023-03-19T07:56:41.460Z,6.15
2023-03-19T07:59:09.196Z,4.95
2023-03-19T08:01:36.609Z,5.45
2023-03-19T08:04:04.223Z,5.50
2023-03-19T08:06:38.851Z,5.22
2023-03-19T08:09:07.118Z,5.35
2023-03-19T08:11:34.419Z,4.55
2023-03-19T08:14:02.363Z,4.90
2023-03-19T08:16:29.716Z,8.93
2023-03-19T08:18:57.145Z,3.63
2023-03-19T08:21:24.465Z,5.50
2023-03-19T08:23:52.803Z,4.72
2023-03-19T08:26:20.154Z,3.53
2023-03-19T08:28:47.437Z,5.03
2023-03-19T08:31:15.128Z,7.40
2023-03-19T08:33:42.578Z,4.90
2023-03-19T08:36:12.296Z,7.57
2023-03-19T08:38:40.038Z,5.25
2023-03-19T08:41:09.224Z,4.75
2023-03-19T08:43:39.255Z,4.88
2023-03-19T08:46:06.947Z,5.68
2023-03-19T08:48:34.430Z,7.30
2023-03-19T08:51:03.568Z,4.97
2023-03-19T08:53:31.872Z,5.97
2023-03-19T08:56:04.581Z,4.25
2023-03-19T08:58:35.044Z,7.20
2023-03-19T09:01:03.728Z,4.40
2023-03-19T09:03:32.187Z,2.47
2023-03-19T09:06:01.497Z,3.50
2023-03-19T09:08:31.011Z,3.47
2023-03-19T09:10:59.282Z,4.50
2023-03-19T09:13:29.385Z,4.82
2023-03-19T09:15:58.663Z,4.22
2023-03-19T09:18:26.152Z,5.43
2023-03-19T09:20:54.357Z,4.38
2023-03-19T09:23:22.430Z,2.83
2023-03-19T09:25:50.129Z,7.07
2023-03-19T09:28:21.006Z,2.72
2023-03-19T09:30:49.741Z,4.60
2023-03-19T09:33:19.134Z,4.93
2023-03-19T09:35:52.981Z,5.28
2023-03-19T09:38:26.199Z,4.65
2023-03-19T09:41:10.302Z,4.65
2023-03-19T09:43:56.677Z,5.85
2023-03-19T09:46:32.767Z,4.30
2023-03-19T09:49:09.127Z,6.28
2023-03-19T09:51:41.866Z,5.13
2023-03-19T09:54:27.440Z,3.58
2023-03-19T09:56:56.002Z,3.67
2023-03-19T09:59:25.185Z,3.70
2023-03-19T10:02:29.350Z,2.67
2023-03-19T10:05:19.124Z,5.03
2023-03-19T10:08:11.347Z,4.50
2023-03-19T10:10:50.878Z,7.40
2023-03-19T10:13:55.498Z,4.40
2023-03-19T10:16:26.562Z,5.07
2023-03-19T10:18:58.707Z,5.07
2023-03-19T10:21:45.145Z,3.88
2023-03-19T10:24:34.691Z,3.53
2023-03-19T10:27:10.910Z,2.55
2023-03-19T10:29:40.029Z,4.88
2023-03-19T10:32:09.383Z,4.45
2023-03-19T10:34:43.434Z,3.95
2023-03-19T10:37:17.352Z,3.65
2023-03-19T10:39:46.489Z,3.90
2023-03-19T10:42:41.762Z,6.72
2023-03-19T10:45:29.157Z,4.20
2023-03-19T10:47:57.745Z,5.40
2023-03-19T10:50:48.398Z,4.53
2023-03-19T10:53:15.729Z,4.57
2023-03-19T10:55:54.146Z,3.92
2023-03-19T10:58:28.908Z,4.03
2023-03-19T11:00:59.385Z,3.08
2023-03-19T11:03:33.011Z,4.15
2023-03-19T11:06:11.088Z,4.57
2023-03-19T11:08:39.144Z,3.03
2023-03-19T11:11:06.585Z,4.82
2023-03-19T11:13:36.342Z,4.05
2023-03-19T11:16:10.935Z,5.15
2023-03-19T11:18:40.398Z,3.05
2023-03-19T11:21:29.804Z,2.92
2023-03-19T11:24:03.491Z,3.85
2023-03-19T11:26:31.433Z,2.58
2023-03-19T11:29:09.268Z,2.90
2023-03-19T11:31:39.747Z,4.03
2023-03-19T11:34:50.286Z,3.53
2023-03-19T11:37:33.628Z,2.25
2023-03-19T11:40:17.825Z,5.50
2023-03-19T11:43:03.934Z,2.70
2023-03-19T11:46:05.293Z,3.88
2023-03-19T11:48:47.957Z,4.25
2023-03-19T11:51:31.027Z,2.92
2023-03-19T11:54:04.611Z,4.32
2023-03-19T11:56:42.432Z,3.35
2023-03-19T11:59:24.089Z,6.80
2023-03-19T12:02:16.252Z,2.58
2023-03-19T12:04:59.551Z,4.63
2023-03-19T12:07:32.877Z,2.35
2023-03-19T12:10:33.768Z,3.58
2023-03-19T12:13:11.090Z,4.32
2023-03-19T12:16:01.883Z,3.03
2023-03-19T12:18:41.101Z,2.63
2023-03-19T12:21:50.825Z,4.07
2023-03-19T12:24:26.202Z,5.50
2023-03-19T12:27:22.314Z,3.83
2023-03-19T12:30:07.226Z,5.32
2023-03-19T12:32:46.643Z,4.70
2023-03-19T12:35:24.698Z,5.68
2023-03-19T12:38:00.882Z,6.72
2023-03-19T12:40:45.865Z,5.18
2023-03-19T12:43:33.782Z,4.47
2023-03-19T12:46:18.859Z,4.68
2023-03-19T12:48:53.006Z,8.20
2023-03-19T12:51:26.839Z,11.07
2023-03-19T12:54:09.826Z,5.10
2023-03-19T12:56:55.845Z,4.32
2023-03-19T12:59:48.289Z,4.53
2023-03-19T13:02:22.553Z,4.47
2023-03-19T13:15:05.115Z,5.45
2023-03-19T13:26:55.263Z,3.80
2023-03-19T14:15:53.238Z,5.22
2023-03-19T15:56:25.639Z,7.40
2023-03-19T15:58:58.704Z,6.47
2023-03-19T16:01:36.161Z,7.28
2023-03-19T16:04:11.289Z,3.97
2023-03-19T16:06:40.570Z,8.32
2023-03-19T16:09:37.074Z,9.80
2023-03-19T16:12:26.746Z,10.93
2023-03-19T16:14:55.012Z,13.48
2023-03-19T16:17:34.272Z,13.55
2023-03-19T16:20:07.966Z,10.65
2023-03-19T16:22:36.950Z,10.52
2023-03-19T16:25:12.543Z,6.65
2023-03-19T16:28:00.519Z,7.03
2023-03-19T16:30:31.470Z,4.50
2023-03-19T16:33:05.400Z,4.80
2023-03-19T16:35:39.706Z,5.80
2023-03-19T16:38:26.586Z,5.43
2023-03-19T16:41:33.154Z,5.65
2023-03-19T16:44:21.811Z,8.52
2023-03-19T16:46:49.993Z,13.30
2023-03-19T16:49:21.585Z,13.10
2023-03-19T16:51:50.387Z,11.80
2023-03-19T16:54:18.744Z,9.63
2023-03-19T16:56:47.362Z,10.40
2023-03-19T16:59:30.266Z,10.20
2023-03-19T17:02:19.522Z,11.95
2023-03-19T17:04:48.356Z,11.93
2023-03-19T17:07:18.136Z,9.70
2023-03-19T17:09:47.234Z,10.57
2023-03-19T17:12:18.332Z,13.07
2023-03-19T17:14:49.922Z,12.57
2023-03-19T17:17:22.844Z,11.27
2023-03-19T17:19:53.287Z,10.32
2023-03-19T17:22:21.485Z,9.80
2023-03-19T17:24:50.663Z,11.38
2023-03-19T17:27:21.646Z,12.13
2023-03-19T17:29:50.576Z,20.08
2023-03-19T17:32:22.263Z,11.77
2023-03-19T17:34:51.031Z,9.57
2023-03-19T17:37:19.512Z,11.77
2023-03-19T17:39:48.700Z,12.30
2023-03-19T17:42:20.921Z,15.65
2023-03-19T17:44:49.718Z,17.63
2023-03-19T17:47:21.888Z,18.60
2023-03-19T17:49:50.714Z,19.10
2023-03-19T17:52:20.765Z,17.27
2023-03-19T17:54:49.142Z,17.10
2023-03-19T17:57:19.442Z,15.68
2023-03-19T17:59:48.478Z,16.95
2023-03-19T18:02:29.482Z,11.85
2023-03-19T18:04:59.357Z,16.30
2023-03-19T18:07:28.255Z,16.13
2023-03-19T18:09:56.911Z,17.67
2023-03-19T18:12:26.646Z,14.52
2023-03-19T18:14:55.074Z,16.55
2023-03-19T18:17:26.207Z,14.60
2023-03-19T18:19:58.217Z,19.90
2023-03-19T18:22:28.059Z,35.92
2023-03-19T18:24:58.341Z,36.15
2023-03-19T18:27:26.555Z,30.58
2023-03-19T18:29:55.229Z,31.75
2023-03-19T18:32:35.986Z,28.92
2023-03-19T18:35:05.001Z,31.45
2023-03-19T18:37:35.449Z,28.27
2023-03-19T18:40:05.751Z,28.97
2023-03-19T18:42:33.836Z,26.17
2023-03-19T18:45:06.602Z,37.05
2023-03-19T18:47:35.762Z,25.85
2023-03-19T18:50:11.018Z,31.83
2023-03-19T18:52:41.928Z,29.55
2023-03-19T18:55:13.021Z,28.25
2023-03-19T18:57:53.255Z,29.88
2023-03-19T19:00:27.052Z,30.23
2023-03-19T19:02:57.347Z,26.02
2023-03-19T19:05:31.654Z,26.42
2023-03-19T19:08:02.418Z,25.60
2023-03-19T19:10:34.873Z,23.02
2023-03-19T19:13:14.539Z,21.88
2023-03-19T19:15:42.781Z,22.60
2023-03-19T19:18:21.946Z,26.83
2023-03-19T19:20:56.002Z,32.25
2023-03-19T19:23:27.437Z,38.60
2023-03-19T19:25:57.186Z,32.70
2023-03-19T19:28:34.389Z,30.65
2023-03-19T19:31:03.693Z,36.10
2023-03-19T19:33:36.370Z,31.73
2023-03-19T19:38:33.440Z,37.53
2023-03-19T19:41:03.132Z,33.50
2023-03-19T19:43:35.428Z,39.03
2023-03-19T19:46:04.735Z,34.88
2023-03-19T19:48:33.393Z,38.17
2023-03-19T19:51:01.740Z,49.70
2023-03-19T19:53:33.374Z,56.05
2023-03-19T19:56:07.840Z,38.88
2023-03-19T19:58:37.690Z,34.17
2023-03-19T20:01:30.521Z,31.90
2023-03-19T20:04:04.940Z,28.52
2023-03-19T20:06:34.180Z,30.80
2023-03-19T20:09:05.490Z,32.92
2023-03-19T20:11:34.589Z,35.42
2023-03-19T20:14:02.903Z,29.60
2023-03-19T20:16:31.077Z,32.20
2023-03-19T20:19:00.601Z,31.90
2023-03-19T20:21:30.527Z,32.90
2023-03-19T20:24:02.591Z,30.92
2023-03-19T20:26:31.168Z,30.42
2023-03-19T20:29:00.100Z,31.65
2023-03-19T20:31:34.266Z,31.33
2023-03-19T20:34:09.385Z,34.53
2023-03-19T20:36:40.820Z,29.13
2023-03-19T20:39:17.001Z,24.30
2023-03-19T20:41:51.356Z,24.70
2023-03-19T20:44:26.307Z,23.30
2023-03-19T20:47:00.592Z,27.08
2023-03-19T20:49:31.561Z,23.98
2023-03-19T20:52:02.798Z,25.77
2023-03-19T20:54:35.608Z,25.55
2023-03-19T20:57:04.617Z,22.05
2023-03-19T20:59:37.921Z,21.92
2023-03-19T21:02:17.388Z,21.08
2023-03-19T21:04:49.444Z,19.60
2023-03-19T21:07:27.177Z,22.10
2023-03-19T21:09:58.008Z,18.58
2023-03-19T21:12:32.955Z,23.10
2023-03-19T21:15:02.496Z,22.05
2023-03-19T21:17:30.941Z,21.95
2023-03-19T21:19:59.110Z,24.38
2023-03-19T21:22:30.236Z,19.30
2023-03-19T21:25:05.639Z,19.90
2023-03-19T21:27:38.210Z,18.45
2023-03-19T21:30:08.710Z,18.70
2023-03-19T21:32:40.358Z,19.50
2023-03-19T21:35:20.151Z,19.88
2023-03-19T21:37:53.034Z,17.55
2023-03-19T21:40:25.808Z,15.93
2023-03-19T21:45:38.150Z,28.45
2023-03-19T21:48:25.419Z,23.35
2023-03-19T21:50:53.409Z,21.40
2023-03-19T21:53:21.758Z,22.33
2023-03-19T21:55:51.251Z,25.45
2023-03-19T21:58:25.725Z,22.10
2023-03-19T22:00:53.028Z,21.05
2023-03-19T22:03:21.988Z,20.77
2023-03-19T22:05:51.406Z,20.15
2023-03-19T22:08:22.846Z,28.45
2023-03-19T22:11:03.047Z,21.05
2023-03-19T22:13:35.475Z,17.75
2023-03-19T22:16:02.928Z,20.73
2023-03-19T22:18:30.423Z,16.55
2023-03-19T22:20:59.558Z,18.85
2023-03-19T22:23:27.530Z,17.42
2023-03-19T22:25:55.058Z,22.65
2023-03-19T22:28:25.177Z,20.98
2023-03-19T22:30:52.918Z,21.75
2023-03-19T22:33:22.646Z,18.20
2023-03-19T22:35:51.279Z,19.05
2023-03-19T22:38:20.498Z,20.63
2023-03-19T22:40:56.790Z,20.05
2023-03-19T22:43:50.536Z,20.02
2023-03-19T22:46:21.843Z,21.90
2023-03-19T22:48:52.823Z,17.05
2023-03-19T22:51:25.843Z,20.13
2023-03-19T22:53:54.366Z,17.00
2023-03-19T22:56:22.440Z,20.35
2023-03-19T22:58:50.866Z,16.00
2023-03-19T23:01:22.617Z,16.63
2023-03-19T23:03:51.146Z,18.40
2023-03-19T23:06:30.876Z,19.65
2023-03-19T23:08:58.916Z,18.60
2023-03-19T23:11:27.264Z,18.77
2023-03-19T23:13:56.554Z,15.85
2023-03-19T23:16:25.396Z,15.88
2023-03-19T23:21:23.882Z,23.60
2023-03-19T23:23:57.007Z,19.98
2023-03-19T23:26:26.159Z,23.15
2023-03-19T23:28:54.695Z,24.75
2023-03-19T23:31:22.201Z,19.90
2023-03-19T23:33:50.098Z,20.55
2023-03-19T23:36:18.346Z,25.25
2023-03-19T23:38:46.879Z,23.33
2023-03-19T23:41:28.119Z,20.35
2023-03-19T23:44:01.722Z,19.17
2023-03-19T23:46:35.561Z,20.58
2023-03-19T23:49:03.260Z,18.13
2023-03-19T23:51:30.850Z,22.35
2023-03-19T23:53:58.141Z,25.02
2023-03-19T23:56:27.306Z,24.27
